Time;durP1;ratioP1;P1;durP2;ratioP2;P2;SDS_P1;SDS_P2;PMS_P1;PMS_P2;Temp;Humidity;BMP_temperature;BMP_pressure;BME280_temperature;BME280_humidity;BME280_pressure;Samples;Min_cycle;Max_cycle;Signal;HPM_P1;HPM_P2
2022/10/04 00:01:53;;;;;;;10.80;5.03;;;;;;;9.47;100.00;96684.34;1724543;82;20986;-88
2022/10/04 00:04:32;;;;;;;8.95;4.20;;;;;;;9.46;100.00;96691.80;1717590;82;21067;-89
2022/10/04 00:07:08;;;;;;;7.37;3.98;;;;;;;9.45;100.00;96691.00;1736731;82;21027;-88
2022/10/04 00:09:45;;;;;;;5.60;3.45;;;;;;;9.45;100.00;96692.30;1734155;82;21011;-88
2022/10/04 00:12:24;;;;;;;7.60;4.17;;;;;;;9.46;100.00;96695.20;1739242;82;20981;-89
2022/10/04 00:14:51;;;;;;;8.45;3.92;;;;;;;9.46;100.00;96689.21;1720080;82;21062;-89
2022/10/04 00:17:25;;;;;;;6.67;3.60;;;;;;;9.45;100.00;96700.56;1723852;82;20990;-89
2022/10/04 00:19:51;;;;;;;6.70;3.98;;;;;;;9.47;100.00;96696.02;1733823;82;21321;-88
2022/10/04 00:22:28;;;;;;;8.15;3.55;;;;;;;9.46;100.00;96691.31;1712392;82;20939;-88
2022/10/04 00:25:16;;;;;;;10.15;5.80;;;;;;;9.47;100.00;96702.50;1738074;82;20967;-89
2022/10/04 00:27:40;;;;;;;8.18;4.08;;;;;;;9.46;100.00;96691.31;1736885;82;20971;-88
2022/10/04 00:30:17;;;;;;;7.53;4.25;;;;;;;9.46;100.00;96697.80;1718845;82;21014;-89
2022/10/04 00:32:47;;;;;;;6.22;4.15;;;;;;;9.46;100.00;96696.50;1714523;82;21025;-89
2022/10/04 00:35:30;;;;;;;8.28;3.90;;;;;;;9.47;100.00;96699.91;1720411;82;21060;-89
2022/10/04 00:38:13;;;;;;;7.28;4.12;;;;;;;9.45;100.00;96697.97;1717428;82;20965;-88
2022/10/04 00:40:54;;;;;;;;;;;;;;;9.44;100.00;96700.25;1741893;82;21375;-89
2022/10/04 00:43:25;;;;;;;6.45;4.37;;;;;;;9.40;100.00;96685.97;1708343;82;20135;-88
2022/10/04 00:45:56;;;;;;;5.15;3.92;;;;;;;9.36;100.00;96691.98;1726270;82;21387;-89
2022/10/04 00:48:30;;;;;;;5.83;3.67;;;;;;;9.35;100.00;96694.25;1733887;82;20978;-88
2022/10/04 00:51:22;;;;;;;6.60;3.90;;;;;;;9.36;100.00;96696.36;1725811;82;21317;-88
2022/10/04 00:54:05;;;;;;;6.90;4.50;;;;;;;9.33;100.00;96685.84;1718264;82;20982;-89
2022/10/04 00:56:49;;;;;;;5.20;3.83;;;;;;;9.30;100.00;96695.25;1739058;82;20954;-89
2022/10/04 00:59:27;;;;;;;6.40;4.87;;;;;;;9.29;100.00;96689.26;1728909;82;21071;-88
2022/10/04 01:02:01;;;;;;;6.45;4.72;;;;;;;9.31;100.00;96687.30;1718514;82;21002;-88
2022/10/04 01:04:36;;;;;;;7.05;4.17;;;;;;;9.29;100.00;96676.29;1735735;82;20980;-89
2022/10/04 01:07:02;;;;;;;9.23;5.87;;;;;;;9.31;100.00;96686.50;1734695;82;20957;-88
2022/10/04 01:09:31;;;;;;;7.37;5.00;;;;;;;9.29;100.00;96676.78;1734756;82;20948;-87
2022/10/04 01:12:05;;;;;;;7.37;5.15;;;;;;;9.27;100.00;96682.14;1721768;82;21348;-88
2022/10/04 01:14:39;;;;;;;9.15;5.95;;;;;;;9.26;100.00;96676.59;1709127;82;21022;-88
2022/10/04 01:17:07;;;;;;;8.43;4.45;;;;;;;9.26;100.00;96675.30;1718477;83;21022;-89
2022/10/04 01:19:33;;;;;;;5.33;4.08;;;;;;;9.26;100.00;96670.61;1703998;83;20980;-88
2022/10/04 01:22:09;;;;;;;10.35;5.05;;;;;;;9.27;100.00;96669.17;1713829;82;21002;-89
2022/10/04 01:24:41;;;;;;;5.58;3.85;;;;;;;9.28;100.00;96660.91;1705650;83;21039;-89
2022/10/04 01:27:40;;;;;;;10.15;4.42;;;;;;;9.27;100.00;96667.03;1726205;82;21500;-88
2022/10/04 01:30:11;;;;;;;8.10;4.50;;;;;;;9.27;100.00;96663.14;1731756;82;20997;-88
2022/10/04 01:32:37;;;;;;;6.30;4.03;;;;;;;9.28;100.00;96669.98;1715845;83;20975;-89
2022/10/04 01:35:04;;;;;;;6.95;4.55;;;;;;;9.28;100.00;96671.27;1708334;83;21067;-89
2022/10/04 01:37:29;;;;;;;8.43;4.40;;;;;;;9.28;100.00;96676.46;1730102;82;20923;-88
2022/10/04 01:39:56;;;;;;;12.93;8.15;;;;;;;9.29;100.00;96671.59;1735917;82;21002;-89
2022/10/04 01:42:44;;;;;;;10.15;4.53;;;;;;;9.28;100.00;96678.56;1716550;82;21010;-88
2022/10/04 01:45:44;;;;;;;6.58;3.85;;;;;;;9.27;100.00;96670.47;1708786;83;21002;-88
2022/10/04 01:48:14;;;;;;;8.05;3.85;;;;;;;9.26;100.00;96674.00;1709263;82;20971;-88
2022/10/04 01:51:03;;;;;;;9.28;4.05;;;;;;;9.27;100.00;96674.36;1727678;83;20961;-89
2022/10/04 01:53:30;;;;;;;7.22;3.50;;;;;;;9.26;100.00;96675.79;1707641;83;21011;-88
2022/10/04 01:56:10;;;;;;;8.78;3.25;;;;;;;9.26;100.00;96677.89;1725297;83;21366;-89
2022/10/04 01:58:44;;;;;;;5.35;3.02;;;;;;;9.27;100.00;96676.95;1719091;83;21381;-88
2022/10/04 02:01:27;;;;;;;6.65;4.60;;;;;;;9.28;100.00;96677.76;1731774;82;20994;-89
2022/10/04 02:04:17;;;;;;;6.95;3.80;;;;;;;9.29;100.00;96677.59;1705521;83;21017;-89
2022/10/04 02:06:44;;;;;;;7.22;3.98;;;;;;;9.29;100.00;96674.19;1727232;82;21291;-88
2022/10/04 02:09:18;;;;;;;7.58;3.45;;;;;;;9.28;100.00;96679.86;1727165;82;21011;-88
2022/10/04 02:11:44;;;;;;;6.75;3.90;;;;;;;9.27;100.00;96678.70;1731495;82;21064;-88
2022/10/04 02:14:14;;;;;;;6.22;3.30;;;;;;;9.27;100.00;96677.41;1701412;84;20990;-88
2022/10/04 02:16:43;;;;;;;5.65;3.25;;;;;;;9.28;100.00;96686.34;1730777;82;21066;-89
2022/10/04 02:19:09;;;;;;;5.87;3.10;;;;;;;9.28;100.00;96688.94;1717875;82;21021;-88
2022/10/04 02:21:35;;;;;;;6.08;3.02;;;;;;;9.26;100.00;96678.38;1732144;82;21353;-88
2022/10/04 02:24:01;;;;;;;5.65;2.55;;;;;;;9.25;100.00;96679.36;1738807;82;20982;-88
2022/10/04 02:26:27;;;;;;;6.47;3.22;;;;;;;9.24;100.00;96684.23;1738676;82;20940;-88
2022/10/04 02:28:52;;;;;;;7.33;2.70;;;;;;;9.21;100.00;96685.37;1736274;82;21022;-88
2022/10/04 02:34:04;;;;;;;4.95;2.62;;;;;;;9.20;100.00;96686.83;1715832;82;21060;-88
2022/10/04 02:36:32;;;;;;;5.65;2.92;;;;;;;9.22;100.00;96687.47;1722030;82;20999;-89
2022/10/04 02:39:14;;;;;;;6.95;2.47;;;;;;;9.23;100.00;96682.12;1671565;82;21377;-88
2022/10/04 02:42:11;;;;;;;5.37;2.40;;;;;;;9.24;100.00;96673.86;1716725;82;21343;-88
2022/10/04 02:44:43;;;;;;;6.30;2.52;;;;;;;9.22;100.00;96677.91;1738839;82;21311;-88
2022/10/04 02:47:22;;;;;;;8.50;4.22;;;;;;;9.23;100.00;96683.42;1736625;82;21003;-88
2022/10/04 02:49:59;;;;;;;8.48;3.08;;;;;;;9.22;100.00;96680.50;1719557;82;20988;-89
2022/10/04 02:52:44;;;;;;;5.85;2.85;;;;;;;9.20;100.00;96675.98;1736663;82;20999;-88
2022/10/04 02:55:20;;;;;;;5.20;3.08;;;;;;;9.20;100.00;96671.28;1737449;82;21334;-88
2022/10/04 02:57:45;;;;;;;4.95;2.77;;;;;;;9.19;100.00;96670.47;1713210;82;21036;-88
2022/10/04 03:00:22;;;;;;;6.67;2.92;;;;;;;9.18;100.00;96675.34;1738877;82;21034;-88
2022/10/04 03:03:23;;;;;;;6.67;4.00;;;;;;;9.19;100.00;96670.96;1736294;82;20975;-89
2022/10/04 03:06:12;;;;;;;6.03;3.33;;;;;;;9.20;100.00;96673.88;1736418;82;20975;-89
2022/10/04 03:08:53;;;;;;;7.05;4.97;;;;;;;9.19;100.00;96682.14;1727630;83;21005;-89
2022/10/04 03:11:22;;;;;;;9.20;3.50;;;;;;;9.16;100.00;96674.70;1715288;82;21015;-90
2022/10/04 03:13:51;;;;;;;4.90;3.25;;;;;;;9.13;100.00;96675.52;1731784;82;20969;-89
2022/10/04 03:16:17;;;;;;;5.17;3.72;;;;;;;9.13;100.00;96679.41;1731679;82;20967;-90
2022/10/04 03:18:42;;;;;;;5.25;3.45;;;;;;;9.14;100.00;96678.44;1713926;82;20937;-90
2022/10/04 03:21:10;;;;;;;10.13;4.08;;;;;;;9.15;100.00;96676.16;1730597;83;21065;-89
2022/10/04 03:23:36;;;;;;;6.12;3.60;;;;;;;9.17;100.00;96682.80;1717210;82;20959;-89
2022/10/04 03:26:31;;;;;;;6.10;3.67;;;;;;;9.20;100.00;96688.13;1711435;83;20940;-90
2022/10/04 03:28:57;;;;;;;10.00;3.75;;;;;;;9.21;100.00;96676.30;1733232;82;20979;-90
2022/10/04 03:31:26;;;;;;;10.30;4.83;;;;;;;9.22;100.00;96674.52;1696012;83;20963;-89
2022/10/04 03:33:55;;;;;;;5.67;3.25;;;;;;;9.26;100.00;96677.09;1715002;82;20957;-90
2022/10/04 03:36:21;;;;;;;6.70;3.33;;;;;;;9.28;100.00;96666.09;1735602;82;21037;-90
2022/10/04 03:38:47;;;;;;;8.73;3.62;;;;;;;9.29;100.00;96666.41;1734423;83;21406;-90
2022/10/04 03:41:13;;;;;;;9.50;3.50;;;;;;;9.28;100.00;96661.71;1735951;82;20995;-89
2022/10/04 03:43:43;;;;;;;5.83;3.35;;;;;;;9.29;100.00;96659.44;1718271;82;21381;-89
2022/10/04 03:46:09;;;;;;;5.80;3.30;;;;;;;9.31;100.00;96670.94;1715393;83;20951;-89
2022/10/04 03:48:44;;;;;;;9.65;4.08;;;;;;;9.30;100.00;96674.50;1738966;82;20983;-90
2022/10/04 03:51:16;;;;;;;4.90;3.45;;;;;;;9.30;100.00;96669.32;1733352;82;20935;-90
2022/10/04 03:53:48;;;;;;;9.48;4.60;;;;;;;9.28;100.00;96664.80;1735777;83;20983;-90
2022/10/04 03:56:32;;;;;;;7.37;4.25;;;;;;;9.28;100.00;96680.35;1709588;82;21043;-90
2022/10/04 03:58:58;;;;;;;7.70;4.22;;;;;;;9.30;100.00;96675.80;1725329;82;22082;-90
2022/10/04 04:01:51;;;;;;;7.83;3.60;;;;;;;9.30;100.00;96676.61;1732608;82;20989;-90
2022/10/04 04:04:47;;;;;;;8.75;4.55;;;;;;;9.30;100.00;96684.87;1713141;82;21125;-89
2022/10/04 04:07:29;;;;;;;7.15;3.55;;;;;;;9.30;100.00;96686.17;1722473;82;20974;-90
2022/10/04 04:10:04;;;;;;;6.80;3.67;;;;;;;9.30;100.00;96681.80;1715969;82;21022;-90
2022/10/04 04:12:47;;;;;;;7.55;3.77;;;;;;;9.28;100.00;96679.86;1709148;82;20959;-90
2022/10/04 04:15:13;;;;;;;7.72;3.72;;;;;;;9.26;100.00;96686.16;1722803;82;21038;-90
2022/10/04 04:17:42;;;;;;;9.98;3.77;;;;;;;9.27;100.00;96688.62;1719730;82;21058;-90
2022/10/04 04:20:25;;;;;;;7.90;3.75;;;;;;;9.25;100.00;96696.22;1715829;83;21015;-90
2022/10/04 04:23:11;;;;;;;8.30;4.10;;;;;;;9.24;100.00;96693.30;1721713;83;20970;-90
2022/10/04 04:25:40;;;;;;;7.30;3.42;;;;;;;9.27;100.00;96695.56;1688789;82;21013;-89
2022/10/04 04:28:30;;;;;;;7.45;3.98;;;;;;;9.27;100.00;96692.97;1735515;82;20997;-90
2022/10/04 04:31:35;;;;;;;9.10;4.00;;;;;;;9.27;100.00;96692.51;1735147;82;21333;-90
2022/10/04 04:34:05;;;;;;;8.95;4.83;;;;;;;9.27;100.00;96689.08;1728781;82;21041;-89
2022/10/04 04:36:40;;;;;;;6.78;3.87;;;;;;;9.27;100.00;96685.19;1712087;82;20938;-90
2022/10/04 04:39:35;;;;;;;6.97;4.00;;;;;;;9.26;100.00;96690.05;1714558;83;21007;-89
2022/10/04 04:42:22;;;;;;;9.20;4.40;;;;;;;9.25;100.00;96698.32;1715246;82;20569;-88
2022/10/04 04:44:55;;;;;;;9.83;4.37;;;;;;;9.24;100.00;96701.08;1730836;82;21089;-88
2022/10/04 04:47:39;;;;;;;11.45;4.40;;;;;;;9.27;100.00;96705.92;1732034;82;21381;-87
2022/10/04 04:50:19;;;;;;;8.73;4.40;;;;;;;9.26;100.00;96706.91;1733048;83;20961;-88
2022/10/04 04:52:59;;;;;;;9.08;5.87;;;;;;;9.29;100.00;96705.30;1729872;82;21022;-88
2022/10/04 04:55:28;;;;;;;137.82;67.27;;;;;;;9.30;100.00;96706.43;1730227;83;21076;-88
2022/10/04 04:57:55;;;;;;;20.72;10.08;;;;;;;9.30;100.00;96706.92;1733021;82;20995;-87
2022/10/04 05:00:26;;;;;;;13.38;5.72;;;;;;;9.30;100.00;96706.92;1745150;82;20976;-89
2022/10/04 05:02:57;;;;;;;10.58;4.83;;;;;;;9.29;100.00;96711.78;1739419;82;21371;-89
2022/10/04 05:05:29;;;;;;;18.27;6.10;;;;;;;9.26;100.00;96715.98;1731792;82;21094;-88
2022/10/04 05:08:21;;;;;;;;;;;;;;;9.27;100.00;96722.78;1708799;83;21287;-88
2022/10/04 05:11:11;;;;;;;9.63;4.47;;;;;;;9.25;100.00;96715.17;1752458;82;20094;-88
2022/10/04 05:13:44;;;;;;;6.53;3.72;;;;;;;9.25;100.00;96726.03;1756116;82;20954;-88
2022/10/04 05:16:18;;;;;;;10.78;4.55;;;;;;;9.25;100.00;96730.73;1711799;83;21467;-88
2022/10/04 05:18:43;;;;;;;41.83;27.65;;;;;;;9.26;100.00;96729.75;1725792;82;20976;-88
2022/10/04 05:21:29;;;;;;;8.95;5.95;;;;;;;9.27;100.00;96725.38;1731593;82;21004;-88
2022/10/04 05:23:57;;;;;;;10.78;4.87;;;;;;;9.28;100.00;96727.83;1709546;82;21066;-89
2022/10/04 05:26:26;;;;;;;9.78;4.45;;;;;;;9.29;100.00;96740.31;1720301;82;21062;-88
2022/10/04 05:28:54;;;;;;;12.40;4.92;;;;;;;9.29;100.00;96738.53;1736297;82;21058;-88
2022/10/04 05:31:26;;;;;;;28.65;9.95;;;;;;;9.32;100.00;96749.05;1719337;82;21484;-88
2022/10/04 05:33:56;;;;;;;14.58;5.97;;;;;;;9.33;100.00;96753.27;1716678;82;20915;-88
2022/10/04 05:36:47;;;;;;;10.88;4.22;;;;;;;9.35;100.00;96745.31;1728580;82;21010;-88
2022/10/04 05:39:32;;;;;;;9.83;4.22;;;;;;;9.35;100.00;96752.61;1728512;82;21392;-88
2022/10/04 05:42:11;;;;;;;8.60;3.80;;;;;;;9.37;100.00;96753.73;1720312;82;21017;-88
2022/10/04 05:44:52;;;;;;;35.35;11.65;;;;;;;9.41;100.00;96762.31;1723568;82;21003;-89
2022/10/04 05:47:26;;;;;;;23.10;9.08;;;;;;;9.43;100.00;96761.66;1731162;82;20914;-89
2022/10/04 05:49:57;;;;;;;11.43;4.17;;;;;;;9.43;100.00;96762.14;1728726;82;20964;-88
2022/10/04 05:52:37;;;;;;;7.45;4.75;;;;;;;9.41;100.00;96763.61;1725414;82;21016;-88
2022/10/04 05:55:26;;;;;;;8.88;4.58;;;;;;;9.42;100.00;96767.01;1735648;82;21812;-88
2022/10/04 05:58:24;;;;;;;11.75;4.75;;;;;;;9.42;100.00;96765.23;1735719;82;20975;-88
2022/10/04 06:01:09;;;;;;;7.97;4.30;;;;;;;9.39;100.00;96766.05;1724504;82;20974;-88
2022/10/04 06:04:15;;;;;;;7.67;4.35;;;;;;;9.38;100.00;96771.72;1738704;82;20939;-88
2022/10/04 06:07:16;;;;;;;8.15;4.62;;;;;;;9.37;100.00;96774.48;1622743;86;21522;-88
2022/10/04 06:09:54;;;;;;;17.27;7.97;;;;;;;9.37;100.00;96770.59;1670652;83;21031;-89
2022/10/04 06:13:03;;;;;;;11.85;6.05;;;;;;;9.35;100.00;96782.43;1698209;83;21078;-89
2022/10/04 06:15:49;;;;;;;15.95;8.08;;;;;;;9.37;100.00;96781.77;1695675;83;20960;-90
2022/10/04 06:18:57;;;;;;;10.58;8.40;;;;;;;9.41;100.00;96778.36;1701881;83;21019;-90
2022/10/04 06:21:32;;;;;;;10.65;6.58;;;;;;;9.44;100.00;96782.75;1708937;83;21007;-90
2022/10/04 06:24:06;;;;;;;11.05;5.92;;;;;;;9.50;100.00;96776.90;1711638;83;20984;-88
2022/10/04 06:26:37;;;;;;;11.48;5.30;;;;;;;9.56;100.00;96779.31;1714726;83;20955;-90
2022/10/04 06:29:11;;;;;;;6.12;4.53;;;;;;;9.59;100.00;96780.27;1713594;82;21006;-90
2022/10/04 06:32:00;;;;;;;10.65;5.10;;;;;;;9.59;100.00;96790.64;1697461;83;21067;-90
2022/10/04 06:34:58;;;;;;;7.85;4.60;;;;;;;9.57;100.00;96786.92;1723828;83;21997;-90
2022/10/04 06:37:51;;;;;;;13.28;8.23;;;;;;;9.50;100.00;96791.16;1714875;83;21047;-89
2022/10/04 06:40:26;;;;;;;9.93;5.60;;;;;;;9.48;100.00;96799.60;1677867;83;20994;-89
2022/10/04 06:43:25;;;;;;;18.80;10.45;;;;;;;9.42;100.00;96800.73;1701330;83;21401;-89
2022/10/04 06:46:08;;;;;;;34.18;21.77;;;;;;;9.42;100.00;96807.21;1724407;83;20998;-90
2022/10/04 06:49:04;;;;;;;15.60;8.08;;;;;;;9.41;100.00;96812.89;1715838;83;21034;-89
2022/10/04 06:52:18;;;;;;;15.68;10.23;;;;;;;9.38;100.00;96826.67;1700223;83;20960;-90
2022/10/04 06:55:06;;;;;;;14.58;8.23;;;;;;;9.36;100.00;96829.92;1710225;83;20987;-90
2022/10/04 06:58:11;;;;;;;15.63;9.73;;;;;;;9.37;100.00;96828.45;1716849;83;21015;-90
2022/10/04 07:00:50;;;;;;;19.00;8.68;;;;;;;9.41;100.00;96841.41;1718191;83;21000;-90
2022/10/04 07:03:25;;;;;;;18.52;9.78;;;;;;;9.47;100.00;96842.56;1694646;83;20963;-90
2022/10/04 07:06:00;;;;;;;21.82;11.93;;;;;;;9.48;100.00;96847.59;1722366;82;21098;-90
2022/10/04 07:08:50;;;;;;;16.87;11.15;;;;;;;9.51;100.00;96839.48;1717607;83;21437;-89
2022/10/04 07:11:23;;;;;;;10.88;7.28;;;;;;;9.56;100.00;96845.46;1724083;83;20991;-89
2022/10/04 07:14:05;;;;;;;14.45;8.00;;;;;;;9.59;100.00;96848.53;1724080;83;20928;-90
2022/10/04 07:16:48;;;;;;;11.22;7.10;;;;;;;9.67;100.00;96848.22;1717273;83;21001;-89
2022/10/04 07:19:39;;;;;;;11.50;5.05;;;;;;;9.69;100.00;96847.56;1695618;83;21404;-90
2022/10/04 07:22:27;;;;;;;8.40;4.97;;;;;;;9.73;100.00;96854.03;1729530;83;20960;-90
2022/10/04 07:25:29;;;;;;;11.40;5.58;;;;;;;9.68;100.00;96842.86;1732613;82;21039;-90
2022/10/04 07:31:06;;;;;;;16.52;7.08;;;;;;;9.65;100.00;96863.14;1724453;82;21016;-89
2022/10/04 07:33:35;;;;;;;13.72;5.95;;;;;;;9.62;100.00;96868.98;1742821;82;21034;-90
2022/10/04 07:36:09;;;;;;;8.33;4.70;;;;;;;9.60;100.00;96877.42;1735975;82;21012;-90
2022/10/04 07:38:46;;;;;;;10.20;5.35;;;;;;;9.60;100.00;96872.23;1716801;83;20953;-89
2022/10/04 07:41:23;;;;;;;7.00;4.50;;;;;;;9.57;100.00;96875.62;1732448;82;21055;-90
2022/10/04 07:43:57;;;;;;;9.18;4.85;;;;;;;9.59;100.00;96873.18;1732314;83;20956;-90
2022/10/04 07:46:48;;;;;;;12.28;5.47;;;;;;;9.67;100.00;96875.46;1748443;81;21030;-90
2022/10/04 07:49:20;;;;;;;8.70;5.10;;;;;;;9.77;100.00;96875.63;1701575;83;20994;-90
2022/10/04 07:52:17;;;;;;;7.62;5.00;;;;;;;9.87;100.00;96881.42;1700682;83;20955;-89
2022/10/04 07:55:22;;;;;;;10.15;7.28;;;;;;;9.96;100.00;96883.53;1678815;83;21047;-90
2022/10/04 07:58:22;;;;;;;10.20;5.35;;;;;;;10.01;100.00;96877.34;1681761;83;21397;-91
2022/10/04 08:01:16;;;;;;;9.53;3.80;;;;;;;10.05;100.00;96894.70;1710647;83;21004;-91
2022/10/04 08:04:19;;;;;;;5.95;2.85;;;;;;;10.05;100.00;96889.50;1724111;83;20982;-89
2022/10/04 08:07:05;;;;;;;7.28;3.05;;;;;;;10.09;100.00;96890.33;1718623;83;21417;-89
2022/10/04 08:09:52;;;;;;;8.33;4.20;;;;;;;10.09;100.00;96899.91;1704038;83;20996;-89
2022/10/04 08:12:48;;;;;;;10.55;4.20;;;;;;;10.10;100.00;96894.55;1700564;83;21054;-90
2022/10/04 08:15:25;;;;;;;10.35;4.62;;;;;;;10.14;100.00;96898.91;1722046;83;20955;-90
2022/10/04 08:18:00;;;;;;;10.15;5.50;;;;;;;10.18;100.00;96895.00;1711607;83;21426;-90
2022/10/04 08:21:00;;;;;;;9.03;5.50;;;;;;;10.28;100.00;96893.55;1711829;83;20989;-90
2022/10/04 08:23:46;;;;;;;8.75;5.65;;;;;;;10.39;100.00;96903.56;1654087;85;20999;-91
2022/10/04 08:26:40;;;;;;;8.88;4.30;;;;;;;10.52;100.00;96905.14;1711275;83;21311;-90
2022/10/04 08:29:41;;;;;;;9.70;3.60;;;;;;;10.59;100.00;96910.50;1712254;83;20991;-91
2022/10/04 08:32:51;;;;;;;5.22;3.00;;;;;;;10.60;100.00;96909.03;1692206;83;20936;-90
2022/10/04 08:35:35;;;;;;;6.22;3.60;;;;;;;10.54;100.00;96907.08;1704482;83;21326;-90
2022/10/04 08:38:31;;;;;;;7.40;3.30;;;;;;;10.57;100.00;96908.04;1720692;83;20971;-90
2022/10/04 08:41:31;;;;;;;5.12;2.10;;;;;;;10.60;100.00;96922.02;1723293;83;20952;-90
2022/10/04 08:44:12;;;;;;;4.78;2.27;;;;;;;10.58;98.99;96922.68;1721904;83;20944;-90
2022/10/04 08:46:58;;;;;;;7.33;2.30;;;;;;;10.57;98.61;96926.72;1706715;83;21068;-90
2022/10/04 08:50:18;;;;;;;5.03;2.00;;;;;;;10.55;99.20;96920.39;1699394;83;21202;-89
2022/10/04 08:53:23;;;;;;;3.47;1.55;;;;;;;10.60;99.56;96922.02;1711489;83;21329;-90
2022/10/04 08:56:28;;;;;;;5.83;1.95;;;;;;;10.74;99.17;96927.81;1634847;87;21470;-90
2022/10/04 08:59:14;;;;;;;4.80;2.10;;;;;;;10.75;98.34;96929.43;1624849;86;21067;-90
2022/10/04 09:02:31;;;;;;;6.67;2.62;;;;;;;10.78;98.88;96923.08;1701152;83;20948;-90
2022/10/04 09:05:41;;;;;;;2.85;1.90;;;;;;;10.80;98.37;96928.91;1711506;83;21028;-91
2022/10/04 09:08:40;;;;;;;3.27;2.20;;;;;;;10.76;97.53;96929.75;1674859;84;21016;-90
2022/10/04 09:11:43;;;;;;;6.62;3.35;;;;;;;10.77;97.76;96931.86;1701545;83;20936;-90
2022/10/04 09:14:32;;;;;;;6.58;4.42;;;;;;;10.81;98.22;96935.73;1718628;83;20984;-91
2022/10/04 09:17:28;;;;;;;6.87;3.60;;;;;;;10.86;98.30;96938.63;1697759;83;20960;-91
2022/10/04 09:20:05;;;;;;;6.55;2.10;;;;;;;10.80;97.87;96941.91;1686892;83;20973;-91
2022/10/04 09:22:56;;;;;;;7.28;2.80;;;;;;;10.73;97.71;96943.55;1712715;83;20932;-90
2022/10/04 09:25:41;;;;;;;7.67;3.75;;;;;;;10.66;97.69;96946.02;1693030;83;20991;-91
2022/10/04 09:28:36;;;;;;;5.00;2.65;;;;;;;10.64;97.51;96947.98;1721197;83;21369;-91
2022/10/04 09:31:32;;;;;;;8.68;4.28;;;;;;;10.59;96.70;96949.48;1720673;83;21014;-90
2022/10/04 09:34:16;;;;;;;5.05;3.80;;;;;;;10.53;96.43;96953.05;1714519;83;20998;-91
2022/10/04 09:37:04;;;;;;;10.80;7.12;;;;;;;10.54;97.11;96952.55;1710477;83;21003;-91
2022/10/04 09:40:26;;;;;;;7.75;3.50;;;;;;;10.59;97.39;96958.08;1714648;83;21071;-91
2022/10/04 09:42:58;;;;;;;7.00;4.50;;;;;;;10.61;97.48;96960.02;1721050;83;20992;-91
2022/10/04 09:45:44;;;;;;;6.65;5.25;;;;;;;10.63;97.86;96955.45;1706253;83;20983;-91
2022/10/04 09:48:27;;;;;;;8.13;4.42;;;;;;;10.71;98.13;96967.60;1721363;83;21004;-89
2022/10/04 09:51:10;;;;;;;7.42;4.67;;;;;;;10.77;96.80;96959.95;1710091;83;21035;-90
2022/10/04 09:54:03;;;;;;;9.25;4.25;;;;;;;10.96;97.63;96956.62;1721833;83;20948;-90
2022/10/04 09:56:48;;;;;;;4.90;2.70;;;;;;;11.12;97.26;96961.75;1716228;83;20920;-91
2022/10/04 09:59:20;;;;;;;6.53;3.72;;;;;;;11.35;97.55;96964.37;1691759;83;20954;-91
2022/10/04 10:01:55;;;;;;;4.67;1.80;;;;;;;11.42;96.37;96968.73;1695202;83;20959;-91
2022/10/04 10:05:02;;;;;;;5.42;2.50;;;;;;;11.43;94.31;96965.14;1708165;83;20943;-91
2022/10/04 10:08:00;;;;;;;3.50;1.87;;;;;;;11.40;94.21;96969.89;1693355;82;21050;-90
2022/10/04 10:14:30;;;;;;;4.45;2.67;;;;;;;11.55;93.45;96972.53;1732033;82;21062;-90
2022/10/04 10:17:14;;;;;;;3.67;1.77;;;;;;;11.66;94.42;96976.04;1717212;82;20947;-90
2022/10/04 10:20:15;;;;;;;4.45;1.90;;;;;;;11.81;91.77;96976.13;1732091;82;21628;-90
2022/10/04 10:23:10;;;;;;;5.25;1.75;;;;;;;11.93;91.22;96983.85;1717378;82;21032;-90
2022/10/04 10:26:10;;;;;;;4.75;1.65;;;;;;;11.95;91.24;96991.80;1734443;82;21022;-89
2022/10/04 10:29:15;;;;;;;3.67;1.62;;;;;;;12.00;93.58;96984.76;1722975;82;21059;-90
2022/10/04 10:32:04;;;;;;;3.47;1.30;;;;;;;12.03;91.01;96985.70;1721211;82;20944;-90
2022/10/04 10:34:55;;;;;;;3.98;1.60;;;;;;;12.02;90.65;97002.31;1714602;82;20977;-91
2022/10/04 10:37:52;;;;;;;4.00;1.60;;;;;;;12.01;89.49;97001.51;1714000;82;21338;-90
2022/10/04 10:41:02;;;;;;;4.37;1.72;;;;;;;12.03;86.73;97000.03;1708740;82;21105;-91
2022/10/04 10:44:09;;;;;;;5.00;1.72;;;;;;;11.99;88.54;97002.17;1718281;82;20948;-91
2022/10/04 10:47:13;;;;;;;4.80;2.20;;;;;;;12.04;88.88;97008.19;1710546;82;20978;-90
2022/10/04 10:50:00;;;;;;;6.35;3.27;;;;;;;12.08;88.46;97007.34;1709726;82;21746;-90
2022/10/04 10:52:36;;;;;;;6.58;2.87;;;;;;;12.17;87.96;97009.68;1730949;82;20985;-91
2022/10/04 10:55:25;;;;;;;6.58;4.00;;;;;;;12.20;88.59;97008.52;1732910;82;20924;-91
2022/10/04 10:58:26;;;;;;;5.80;3.45;;;;;;;12.33;89.32;96997.81;1736260;82;20950;-90
2022/10/04 11:01:26;;;;;;;8.18;2.47;;;;;;;12.43;88.70;97005.87;1723140;82;20991;-91
2022/10/04 11:04:28;;;;;;;4.78;1.98;;;;;;;12.57;87.76;96996.77;1717283;82;20967;-91
2022/10/04 11:07:29;;;;;;;6.90;3.67;;;;;;;12.74;87.08;97000.51;1737964;82;21412;-91
2022/10/04 11:10:20;;;;;;;16.77;8.28;;;;;;;12.80;88.23;97003.69;1738373;82;20971;-91
2022/10/04 11:13:11;;;;;;;13.95;8.50;;;;;;;12.76;86.22;96999.34;1730466;82;21008;-90
2022/10/04 11:16:18;;;;;;;5.45;2.62;;;;;;;12.71;85.62;97005.59;1737702;82;20993;-90
2022/10/04 11:19:45;;;;;;;4.35;2.08;;;;;;;12.53;84.76;97010.34;1736816;82;21054;-90
2022/10/04 11:22:58;;;;;;;4.95;2.50;;;;;;;12.49;85.87;97015.58;1735880;82;20915;-90
2022/10/04 11:25:38;;;;;;;4.40;1.87;;;;;;;12.46;86.27;97025.88;1719502;82;20970;-90
2022/10/04 11:28:23;;;;;;;3.77;1.90;;;;;;;12.37;85.81;97020.94;1737996;82;21019;-91
2022/10/04 11:31:16;;;;;;;6.28;3.05;;;;;;;12.36;84.07;97017.48;1738014;82;20961;-91
2022/10/04 11:34:40;;;;;;;6.05;4.15;;;;;;;12.27;85.80;97019.38;1716590;82;21468;-90
2022/10/04 11:37:29;;;;;;;5.67;2.27;;;;;;;12.47;86.13;97022.28;1722988;82;21037;-90
2022/10/04 11:40:20;;;;;;;3.27;2.02;;;;;;;12.67;84.62;97008.72;1717291;82;21084;-91
2022/10/04 11:43:18;;;;;;;6.03;4.10;;;;;;;12.92;84.24;97002.25;1735026;82;21016;-91
2022/10/04 11:46:12;;;;;;;5.62;3.77;;;;;;;13.19;83.14;97013.87;1727582;82;20997;-90
2022/10/04 11:49:17;;;;;;;5.80;2.30;;;;;;;13.39;83.96;97022.73;1739203;82;21018;-90
2022/10/04 11:52:29;;;;;;;5.97;2.08;;;;;;;13.53;80.66;97021.59;1739260;82;20959;-90
2022/10/04 11:55:31;;;;;;;5.77;3.53;;;;;;;13.49;80.10;97010.18;1734006;82;20991;-90
2022/10/04 11:58:20;;;;;;;4.55;1.98;;;;;;;13.39;80.58;97014.09;1717416;82;20919;-90
2022/10/04 12:01:30;;;;;;;4.42;2.10;;;;;;;13.21;78.79;97020.52;1718648;82;21014;-90
2022/10/04 12:04:16;;;;;;;4.37;2.05;;;;;;;13.16;80.07;97017.59;1734570;82;21060;-89
2022/10/04 12:07:08;;;;;;;5.22;1.67;;;;;;;13.09;78.38;97015.41;1725272;82;20987;-90
2022/10/04 12:09:48;;;;;;;4.78;2.22;;;;;;;12.93;78.38;97019.52;1706897;82;21050;-90
2022/10/04 12:12:57;;;;;;;5.92;3.30;;;;;;;12.79;78.42;97024.23;1690266;82;20935;-91
2022/10/04 12:15:44;;;;;;;6.47;2.17;;;;;;;12.67;78.58;97026.97;1726255;82;20923;-92
2022/10/04 12:18:50;;;;;;;5.25;1.80;;;;;;;12.41;78.08;97020.39;1737243;82;21015;-91
2022/10/04 12:21:39;;;;;;;5.40;2.87;;;;;;;12.29;78.76;97023.10;1738896;82;21379;-90
2022/10/04 12:24:23;;;;;;;4.78;1.85;;;;;;;12.49;79.16;97022.09;1736292;82;20982;-91
2022/10/04 12:27:30;;;;;;;4.37;1.50;;;;;;;12.67;79.03;97016.05;1719408;82;20971;-91
2022/10/04 12:30:25;;;;;;;4.50;2.45;;;;;;;12.82;77.12;97011.64;1738710;82;20959;-91
2022/10/04 12:33:05;;;;;;;4.05;1.92;;;;;;;13.02;77.61;97018.45;1739703;82;20965;-91
2022/10/04 12:35:49;;;;;;;5.33;3.70;;;;;;;13.15;77.10;97015.17;1721931;82;20984;-91
2022/10/04 12:38:36;;;;;;;3.17;2.27;;;;;;;13.29;77.39;97014.88;1719618;82;21049;-91
2022/10/04 12:41:31;;;;;;;4.35;2.42;;;;;;;13.28;76.07;97014.56;1738995;82;21004;-91
2022/10/04 12:44:24;;;;;;;3.52;2.00;;;;;;;13.20;75.42;97018.09;1738139;82;21292;-91
2022/10/04 12:47:26;;;;;;;2.80;1.20;;;;;;;13.29;76.59;97017.48;1738273;82;21425;-90
2022/10/04 12:50:21;;;;;;;7.15;2.10;;;;;;;13.50;75.15;97017.05;1735609;82;21024;-90
2022/10/04 12:53:04;;;;;;;3.62;1.77;;;;;;;13.68;80.12;97016.62;1727640;82;20987;-90
2022/10/04 12:56:20;;;;;;;4.70;1.57;;;;;;;13.77;76.67;97022.53;1726280;82;21021;-90
2022/10/04 12:59:13;;;;;;;2.50;1.15;;;;;;;13.88;74.36;97025.16;1723984;82;20967;-90
2022/10/04 13:02:13;;;;;;;5.05;1.45;;;;;;;14.01;73.74;97031.81;1733845;82;20978;-90